Time;durP1;ratioP1;P1;durP2;ratioP2;P2;SDS_P1;SDS_P2;PMS_P1;PMS_P2;Temp;Humidity;BMP_temperature;BMP_pressure;BME280_temperature;BME280_humidity;BME280_pressure;Samples;Min_cycle;Max_cycle;Signal;HPM_P1;HPM_P2
2023/02/17 00:00:20;;;;;;;37.28;16.92;;;;;;;;;;5071300;28;20016;-50
2023/02/17 00:02:45;;;;;;;37.10;16.75;;;;;;;;;;5071088;28;20174;-50
2023/02/17 00:05:10;;;;;;;33.20;16.00;;;;;;;;;;5071354;28;20027;-50
2023/02/17 00:07:36;;;;;;;33.58;15.90;;;;;;;;;;5070988;28;20040;-50
2023/02/17 00:10:01;;;;;;;34.58;14.85;;;;;;;;;;5070810;28;20037;-50
2023/02/17 00:12:27;;;;;;;36.80;15.95;;;;;;;;;;5070978;28;20032;-50
2023/02/17 00:14:52;;;;;;;31.25;15.38;;;;;;;;;;5070948;28;20043;-50
2023/02/17 00:17:17;;;;;;;37.10;16.02;;;;;;;;;;5070969;28;20085;-50
2023/02/17 00:19:43;;;;;;;37.85;16.85;;;;;;;;;;5070876;28;20032;-50
2023/02/17 00:22:08;;;;;;;31.73;14.25;;;;;;;;;;5071492;28;20033;-50
2023/02/17 00:24:36;;;;;;;34.90;14.73;;;;;;;;;;5074558;28;20379;-50
2023/02/17 00:27:02;;;;;;;39.92;16.75;;;;;;;;;;5073290;28;20017;-50
2023/02/17 00:29:27;;;;;;;32.03;15.18;;;;;;;;;;5074632;28;20103;-51
2023/02/17 00:31:53;;;;;;;34.33;17.52;;;;;;;;;;5073091;28;20093;-50
2023/02/17 00:34:18;;;;;;;25.83;13.63;;;;;;;;;;5074421;28;20041;-50
2023/02/17 00:36:44;;;;;;;40.42;15.48;;;;;;;;;;5073193;28;20546;-50
2023/02/17 00:39:12;;;;;;;31.35;16.02;;;;;;;;;;5074346;28;20099;-50
2023/02/17 00:41:38;;;;;;;31.95;15.90;;;;;;;;;;5073046;28;20060;-50
2023/02/17 00:44:04;;;;;;;34.65;15.32;;;;;;;;;;5074211;28;20078;-50
2023/02/17 00:46:29;;;;;;;35.70;16.85;;;;;;;;;;5074563;28;20543;-50
2023/02/17 00:48:55;;;;;;;23.23;12.80;;;;;;;;;;5072936;28;20020;-50
2023/02/17 00:51:20;;;;;;;32.40;14.10;;;;;;;;;;5074138;28;20044;-50
2023/02/17 00:53:46;;;;;;;33.05;15.48;;;;;;;;;;5074516;28;20029;-50
2023/02/17 00:56:11;;;;;;;37.45;14.20;;;;;;;;;;5074277;28;20526;-50
2023/02/17 00:58:37;;;;;;;32.15;15.43;;;;;;;;;;5074386;28;20074;-50
2023/02/17 01:01:02;;;;;;;27.45;14.23;;;;;;;;;;5073967;28;20020;-50
2023/02/17 01:03:28;;;;;;;31.80;14.43;;;;;;;;;;5072655;28;20090;-50
2023/02/17 01:05:54;;;;;;;31.83;15.38;;;;;;;;;;5072666;28;20457;-50
2023/02/17 01:08:20;;;;;;;35.75;15.80;;;;;;;;;;5074190;28;20439;-50
2023/02/17 01:10:46;;;;;;;30.60;14.70;;;;;;;;;;5073785;28;20494;-50
2023/02/17 01:13:12;;;;;;;38.63;14.50;;;;;;;;;;5073790;28;20096;-50
2023/02/17 01:15:39;;;;;;;28.00;13.50;;;;;;;;;;5073985;28;20028;-50
2023/02/17 01:18:04;;;;;;;30.75;13.35;;;;;;;;;;5073645;28;20025;-50
2023/02/17 01:20:33;;;;;;;32.53;15.23;;;;;;;;;;5073690;28;20070;-51
2023/02/17 01:22:59;;;;;;;31.48;14.65;;;;;;;;;;5073482;28;20025;-50
2023/02/17 01:25:24;;;;;;;31.17;14.98;;;;;;;;;;5073688;28;20040;-51
2023/02/17 01:27:49;;;;;;;29.77;14.63;;;;;;;;;;5072147;28;20021;-50
2023/02/17 01:30:15;;;;;;;32.92;15.65;;;;;;;;;;5072205;28;20073;-51
2023/02/17 01:32:40;;;;;;;25.38;13.90;;;;;;;;;;5071582;28;20463;-50
2023/02/17 01:35:06;;;;;;;31.60;15.07;;;;;;;;;;5073370;28;20119;-50
2023/02/17 01:37:34;;;;;;;32.17;15.55;;;;;;;;;;5073419;28;20191;-50
2023/02/17 01:39:59;;;;;;;37.13;15.70;;;;;;;;;;5071822;28;20118;-50
2023/02/17 01:42:24;;;;;;;39.65;16.80;;;;;;;;;;5072048;28;20020;-50
2023/02/17 01:45:08;;;;;;;45.78;19.80;;;;;;;;;;5071814;28;20726;-50
2023/02/17 01:47:34;;;;;;;32.45;15.70;;;;;;;;;;5073237;28;20029;-50
2023/02/17 01:50:00;;;;;;;30.00;16.73;;;;;;;;;;5073041;28;20108;-50
2023/02/17 01:52:25;;;;;;;31.73;14.55;;;;;;;;;;5073039;28;20067;-50
2023/02/17 01:54:54;;;;;;;38.28;17.38;;;;;;;;;;5072939;28;20021;-50
2023/02/17 01:57:22;;;;;;;35.38;15.82;;;;;;;;;;5073167;28;20356;-50
2023/02/17 01:59:48;;;;;;;34.78;16.08;;;;;;;;;;5071566;28;20142;-50
2023/02/17 02:02:14;;;;;;;35.75;13.75;;;;;;;;;;5072776;28;20046;-50
2023/02/17 02:04:42;;;;;;;36.13;16.42;;;;;;;;;;5071506;28;20391;-50
2023/02/17 02:07:10;;;;;;;36.00;16.00;;;;;;;;;;5072638;28;20028;-50
2023/02/17 02:09:39;;;;;;;33.67;16.30;;;;;;;;;;5071377;28;20021;-50
2023/02/17 02:12:21;;;;;;;29.20;14.80;;;;;;;;;;5072622;28;20098;-50
2023/02/17 02:14:47;;;;;;;41.55;15.13;;;;;;;;;;5071327;28;20047;-50
2023/02/17 02:17:29;;;;;;;29.45;15.13;;;;;;;;;;5072780;28;20382;-50
2023/02/17 02:20:09;;;;;;;38.88;16.48;;;;;;;;;;5071126;28;20398;-50
2023/02/17 02:23:06;;;;;;;35.80;17.15;;;;;;;;;;5072449;28;20032;-50
2023/02/17 02:25:50;;;;;;;36.63;14.93;;;;;;;;;;5071137;28;20041;-50
2023/02/17 02:28:21;;;;;;;27.80;13.02;;;;;;;;;;5071059;28;20039;-50
2023/02/17 02:30:50;;;;;;;41.85;17.55;;;;;;;;;;5070876;28;20030;-50
2023/02/17 02:33:16;;;;;;;35.60;16.45;;;;;;;;;;5070855;28;20048;-51
2023/02/17 02:35:50;;;;;;;30.85;15.85;;;;;;;;;;5070948;28;20401;-50
2023/02/17 02:38:33;;;;;;;30.13;15.13;;;;;;;;;;5071143;28;20074;-50
2023/02/17 02:41:03;;;;;;;38.22;16.67;;;;;;;;;;5070653;28;20024;-50
2023/02/17 02:43:30;;;;;;;32.55;15.52;;;;;;;;;;5070579;28;20040;-50
2023/02/17 02:45:57;;;;;;;31.70;16.30;;;;;;;;;;5070100;28;20028;-50
2023/02/17 02:48:23;;;;;;;34.20;15.45;;;;;;;;;;5072032;28;20027;-50
2023/02/17 02:50:56;;;;;;;33.03;15.45;;;;;;;;;;5071903;28;20028;-50
2023/02/17 02:53:41;;;;;;;34.55;17.20;;;;;;;;;;5053996;28;20474;-50
2023/02/17 02:56:13;;;;;;;32.42;14.77;;;;;;;;;;5070498;28;20079;-50
2023/02/17 02:58:48;;;;;;;37.38;15.20;;;;;;;;;;5070546;28;20056;-50
2023/02/17 03:01:18;;;;;;;29.75;15.88;;;;;;;;;;5070356;28;20085;-50
2023/02/17 03:04:04;;;;;;;38.58;15.73;;;;;;;;;;5071738;28;20060;-50
2023/02/17 03:06:56;;;;;;;42.78;17.02;;;;;;;;;;5071252;28;20406;-50
2023/02/17 03:09:23;;;;;;;38.55;16.92;;;;;;;;;;5066621;28;20058;-50
2023/02/17 03:11:49;;;;;;;35.22;17.02;;;;;;;;;;5070394;28;20028;-50
2023/02/17 03:14:17;;;;;;;34.45;16.63;;;;;;;;;;5070368;28;20086;-50
2023/02/17 03:16:43;;;;;;;32.97;18.23;;;;;;;;;;5053690;28;20215;-50
2023/02/17 03:19:08;;;;;;;37.25;14.55;;;;;;;;;;5071377;28;20119;-50
2023/02/17 03:21:46;;;;;;;33.08;14.43;;;;;;;;;;5070165;28;20017;-50
2023/02/17 03:24:12;;;;;;;46.67;17.33;;;;;;;;;;5070011;28;20394;-50
2023/02/17 03:26:37;;;;;;;35.35;16.92;;;;;;;;;;5071559;28;20012;-50
2023/02/17 03:29:03;;;;;;;31.55;18.40;;;;;;;;;;5070056;28;20024;-50
2023/02/17 03:31:28;;;;;;;43.25;17.35;;;;;;;;;;5071730;28;20355;-50
2023/02/17 03:33:53;;;;;;;38.83;17.35;;;;;;;;;;5071137;28;20479;-50
2023/02/17 03:36:19;;;;;;;38.22;17.75;;;;;;;;;;5071458;28;20024;-50
2023/02/17 03:38:45;;;;;;;44.35;18.20;;;;;;;;;;5071435;28;20411;-50
2023/02/17 03:41:10;;;;;;;43.63;19.58;;;;;;;;;;5069940;28;20042;-50
2023/02/17 03:43:36;;;;;;;35.97;16.75;;;;;;;;;;5071281;28;20044;-50
2023/02/17 03:46:01;;;;;;;33.63;14.95;;;;;;;;;;5071217;28;20023;-50
2023/02/17 03:48:27;;;;;;;33.17;17.73;;;;;;;;;;5071262;28;20028;-50
2023/02/17 03:50:53;;;;;;;34.45;16.70;;;;;;;;;;5071173;28;20035;-50
2023/02/17 03:53:18;;;;;;;37.92;17.30;;;;;;;;;;5071219;28;20032;-50
2023/02/17 03:55:44;;;;;;;42.50;18.13;;;;;;;;;;5072226;28;20016;-50
2023/02/17 03:58:09;;;;;;;34.90;15.52;;;;;;;;;;5075184;28;20047;-50
2023/02/17 04:00:35;;;;;;;32.08;15.55;;;;;;;;;;5075113;28;20066;-50
2023/02/17 04:03:00;;;;;;;39.08;16.42;;;;;;;;;;5073665;28;20040;-50
2023/02/17 04:05:26;;;;;;;28.73;16.30;;;;;;;;;;5075073;28;20082;-50
2023/02/17 04:07:51;;;;;;;44.60;18.75;;;;;;;;;;5073697;28;20037;-50
2023/02/17 04:10:17;;;;;;;40.58;16.60;;;;;;;;;;5075274;28;20035;-50
2023/02/17 04:12:42;;;;;;;32.47;16.25;;;;;;;;;;5074936;28;20107;-50
2023/02/17 04:15:08;;;;;;;38.63;19.35;;;;;;;;;;5074897;28;20027;-50
2023/02/17 04:17:37;;;;;;;43.22;19.63;;;;;;;;;;5074906;28;20032;-50
2023/02/17 04:20:03;;;;;;;37.88;18.98;;;;;;;;;;5074964;28;20097;-50
2023/02/17 04:22:29;;;;;;;39.53;18.15;;;;;;;;;;5074823;28;20032;-50
2023/02/17 04:24:54;;;;;;;39.22;17.25;;;;;;;;;;5074828;28;20039;-50
2023/02/17 04:27:19;;;;;;;40.30;18.35;;;;;;;;;;5074713;28;20033;-51
2023/02/17 04:29:45;;;;;;;39.40;16.17;;;;;;;;;;5074606;28;20025;-51
2023/02/17 04:32:10;;;;;;;38.47;18.13;;;;;;;;;;5074288;28;20040;-51
2023/02/17 04:34:35;;;;;;;35.83;17.75;;;;;;;;;;5074610;28;20049;-50
2023/02/17 04:37:01;;;;;;;42.58;17.35;;;;;;;;;;5074371;28;20032;-51
2023/02/17 04:39:26;;;;;;;35.83;15.48;;;;;;;;;;5074370;28;20020;-50
2023/02/17 04:41:52;;;;;;;45.35;18.60;;;;;;;;;;5074381;28;20031;-50
2023/02/17 04:44:17;;;;;;;38.33;15.55;;;;;;;;;;5074594;28;20472;-50
2023/02/17 04:46:42;;;;;;;30.17;14.98;;;;;;;;;;5074370;28;20450;-50
2023/02/17 04:49:08;;;;;;;36.90;15.10;;;;;;;;;;5074191;28;20107;-50
2023/02/17 04:51:33;;;;;;;31.00;15.77;;;;;;;;;;5074277;28;20363;-50
2023/02/17 04:53:58;;;;;;;34.63;14.50;;;;;;;;;;5074195;28;20028;-50
2023/02/17 04:56:24;;;;;;;33.20;15.98;;;;;;;;;;5074134;28;20061;-50
2023/02/17 04:58:49;;;;;;;39.92;19.08;;;;;;;;;;5074470;28;20032;-50
2023/02/17 05:01:15;;;;;;;35.80;15.50;;;;;;;;;;5073888;28;20029;-50
2023/02/17 05:03:40;;;;;;;34.60;14.88;;;;;;;;;;5074219;28;20024;-50
2023/02/17 05:06:06;;;;;;;31.58;14.27;;;;;;;;;;5073901;28;20110;-50
2023/02/17 05:08:31;;;;;;;34.53;15.70;;;;;;;;;;5071791;28;20024;-51
2023/02/17 05:10:57;;;;;;;30.25;14.63;;;;;;;;;;5074306;28;20090;-50
2023/02/17 05:13:22;;;;;;;33.92;13.98;;;;;;;;;;5073907;28;20046;-50
2023/02/17 05:15:48;;;;;;;37.47;14.68;;;;;;;;;;5073709;28;20108;-50
2023/02/17 05:18:13;;;;;;;29.00;13.90;;;;;;;;;;5072452;28;20085;-50
2023/02/17 05:20:39;;;;;;;30.27;13.68;;;;;;;;;;5072400;28;20090;-50
2023/02/17 05:23:05;;;;;;;25.98;13.05;;;;;;;;;;5072281;28;20055;-50
2023/02/17 05:25:30;;;;;;;34.33;16.30;;;;;;;;;;5073638;28;20433;-50
2023/02/17 05:27:56;;;;;;;22.90;10.93;;;;;;;;;;5073734;28;20467;-51
2023/02/17 05:30:21;;;;;;;24.23;11.75;;;;;;;;;;5073538;28;20028;-50
2023/02/17 05:32:47;;;;;;;23.77;12.10;;;;;;;;;;5073280;28;20514;-50
2023/02/17 05:35:12;;;;;;;27.90;13.48;;;;;;;;;;5073411;28;20028;-51
2023/02/17 05:37:38;;;;;;;31.23;14.20;;;;;;;;;;5073406;28;20037;-50
2023/02/17 05:40:04;;;;;;;27.42;12.30;;;;;;;;;;5073244;28;20112;-50
2023/02/17 05:42:29;;;;;;;39.85;13.82;;;;;;;;;;5073341;28;20038;-50
2023/02/17 05:44:55;;;;;;;27.55;11.50;;;;;;;;;;5073376;28;20047;-50
2023/02/17 05:47:21;;;;;;;26.02;12.30;;;;;;;;;;5073440;28;20020;-51
2023/02/17 05:49:46;;;;;;;27.10;11.90;;;;;;;;;;5073146;28;20486;-50
2023/02/17 05:52:11;;;;;;;26.33;12.60;;;;;;;;;;5073022;28;20474;-50
2023/02/17 05:54:37;;;;;;;24.35;13.05;;;;;;;;;;5073353;28;20029;-50
2023/02/17 05:57:02;;;;;;;21.20;10.60;;;;;;;;;;5073238;28;20535;-50
2023/02/17 05:59:27;;;;;;;32.55;13.25;;;;;;;;;;5072875;28;20467;-50
2023/02/17 06:01:53;;;;;;;32.10;15.20;;;;;;;;;;5072913;28;20041;-50
2023/02/17 06:04:18;;;;;;;21.58;11.65;;;;;;;;;;5073170;28;20039;-50
2023/02/17 06:06:44;;;;;;;21.35;11.57;;;;;;;;;;5072816;28;20020;-50
2023/02/17 06:09:09;;;;;;;29.52;14.45;;;;;;;;;;5072677;28;20032;-50
2023/02/17 06:11:35;;;;;;;27.50;14.13;;;;;;;;;;5072928;28;20023;-50
2023/02/17 06:14:00;;;;;;;25.15;11.55;;;;;;;;;;5072590;28;20039;-50
2023/02/17 06:16:25;;;;;;;29.42;13.07;;;;;;;;;;5072964;28;20039;-50
2023/02/17 06:18:51;;;;;;;25.25;11.88;;;;;;;;;;5072841;28;20577;-50
2023/02/17 06:21:16;;;;;;;24.67;12.20;;;;;;;;;;5072650;28;20020;-50
2023/02/17 06:23:42;;;;;;;29.55;13.95;;;;;;;;;;5072431;28;20390;-50
2023/02/17 06:26:07;;;;;;;30.95;13.43;;;;;;;;;;5072314;28;20027;-50
2023/02/17 06:28:33;;;;;;;23.45;12.35;;;;;;;;;;5072376;28;20029;-51
2023/02/17 06:30:58;;;;;;;27.02;13.18;;;;;;;;;;5072129;28;20466;-50
2023/02/17 06:33:24;;;;;;;26.08;12.23;;;;;;;;;;5072222;28;20049;-50
2023/02/17 06:35:50;;;;;;;27.88;12.73;;;;;;;;;;5072109;28;20044;-50
2023/02/17 06:38:15;;;;;;;29.95;11.40;;;;;;;;;;5072077;28;20502;-50
2023/02/17 06:40:41;;;;;;;33.65;14.65;;;;;;;;;;5072027;28;20024;-50
2023/02/17 06:43:06;;;;;;;24.38;11.68;;;;;;;;;;5071940;28;20036;-50
2023/02/17 06:45:32;;;;;;;31.55;13.05;;;;;;;;;;5072079;28;20394;-50
2023/02/17 06:47:57;;;;;;;25.33;13.38;;;;;;;;;;5071961;28;20036;-50
2023/02/17 06:50:23;;;;;;;21.63;11.93;;;;;;;;;;5072235;28;20047;-50
2023/02/17 06:52:48;;;;;;;29.02;12.05;;;;;;;;;;5071988;28;20032;-50
2023/02/17 06:55:14;;;;;;;22.02;12.10;;;;;;;;;;5071789;28;20040;-50
2023/02/17 06:57:39;;;;;;;21.75;11.23;;;;;;;;;;5070653;28;20037;-50
2023/02/17 07:00:05;;;;;;;24.90;12.30;;;;;;;;;;5071740;28;20021;-50
2023/02/17 07:02:31;;;;;;;26.40;13.05;;;;;;;;;;5070860;28;20103;-50
2023/02/17 07:04:56;;;;;;;32.13;14.50;;;;;;;;;;5071839;28;20550;-50
2023/02/17 07:07:22;;;;;;;31.45;14.65;;;;;;;;;;5071740;28;20118;-50
2023/02/17 07:09:47;;;;;;;35.13;16.13;;;;;;;;;;5071562;28;20043;-50
2023/02/17 07:12:12;;;;;;;34.65;16.90;;;;;;;;;;5071576;28;20028;-50
2023/02/17 07:14:38;;;;;;;31.05;13.98;;;;;;;;;;5071825;28;20048;-50
2023/02/17 07:17:04;;;;;;;38.45;18.27;;;;;;;;;;5071497;28;20104;-50
2023/02/17 07:19:29;;;;;;;43.25;18.63;;;;;;;;;;5071805;28;20032;-51
2023/02/17 07:21:55;;;;;;;50.35;17.50;;;;;;;;;;5071512;28;20028;-50
2023/02/17 07:24:20;;;;;;;46.70;18.92;;;;;;;;;;5071392;28;20037;-50
2023/02/17 07:26:46;;;;;;;37.58;17.55;;;;;;;;;;5071677;28;20088;-50
2023/02/17 07:29:11;;;;;;;38.33;14.85;;;;;;;;;;5069992;28;20391;-50
2023/02/17 07:31:37;;;;;;;32.97;16.52;;;;;;;;;;5071269;28;20039;-50
2023/02/17 07:34:03;;;;;;;33.00;14.55;;;;;;;;;;5071118;28;20138;-50
2023/02/17 07:36:28;;;;;;;36.40;15.65;;;;;;;;;;5071670;28;20028;-50
2023/02/17 07:38:54;;;;;;;38.75;16.33;;;;;;;;;;5071544;28;20379;-50
2023/02/17 07:41:20;;;;;;;42.03;18.25;;;;;;;;;;5071288;28;20040;-50
2023/02/17 07:43:46;;;;;;;31.00;14.63;;;;;;;;;;5071255;28;20060;-51
2023/02/17 07:46:15;;;;;;;42.72;16.90;;;;;;;;;;5069842;28;20028;-50
2023/02/17 07:48:40;;;;;;;43.03;14.70;;;;;;;;;;5071299;28;20467;-50
2023/02/17 07:51:07;;;;;;;37.80;16.73;;;;;;;;;;5071136;28;20107;-50
2023/02/17 07:53:33;;;;;;;36.00;17.98;;;;;;;;;;5070315;28;20025;-50
2023/02/17 07:55:58;;;;;;;33.45;15.02;;;;;;;;;;5071153;28;20043;-50
2023/02/17 07:58:24;;;;;;;35.13;17.25;;;;;;;;;;5071142;28;20024;-50
2023/02/17 08:00:50;;;;;;;35.67;14.98;;;;;;;;;;5071129;28;20025;-50
2023/02/17 08:03:15;;;;;;;41.72;17.50;;;;;;;;;;5070930;28;20024;-50
2023/02/17 08:05:41;;;;;;;42.88;17.77;;;;;;;;;;5071055;28;20025;-50
2023/02/17 08:13:35;;;;;;;39.08;15.65;;;;;;;;;;5071100;28;20035;-50
2023/02/17 08:16:00;;;;;;;41.55;16.45;;;;;;;;;;5070951;28;20020;-50
2023/02/17 08:18:26;;;;;;;34.63;15.63;;;;;;;;;;5071273;28;20033;-50
2023/02/17 08:20:51;;;;;;;32.88;15.35;;;;;;;;;;5070869;28;20013;-50
2023/02/17 08:23:19;;;;;;;35.17;16.02;;;;;;;;;;5070775;28;20048;-50
2023/02/17 08:25:44;;;;;;;32.20;14.85;;;;;;;;;;5070946;28;20028;-50
2023/02/17 08:28:10;;;;;;;35.85;17.85;;;;;;;;;;5070752;28;20039;-51
2023/02/17 08:30:37;;;;;;;31.58;16.90;;;;;;;;;;5070914;28;20035;-50
2023/02/17 08:33:03;;;;;;;32.65;17.67;;;;;;;;;;5070573;28;20079;-50
2023/02/17 08:35:28;;;;;;;37.80;16.55;;;;;;;;;;5070902;28;20060;-50
2023/02/17 08:37:53;;;;;;;34.50;17.38;;;;;;;;;;5070979;28;20463;-50
2023/02/17 08:40:19;;;;;;;41.05;18.42;;;;;;;;;;5070723;28;20063;-50
2023/02/17 08:42:44;;;;;;;36.75;15.90;;;;;;;;;;5071743;28;20383;-51
2023/02/17 08:45:11;;;;;;;40.67;17.92;;;;;;;;;;5074218;28;20078;-51
2023/02/17 08:47:37;;;;;;;52.22;18.20;;;;;;;;;;5074356;28;20497;-50
2023/02/17 08:50:04;;;;;;;33.17;16.92;;;;;;;;;;5074153;28;20107;-50
2023/02/17 08:52:30;;;;;;;38.42;17.02;;;;;;;;;;5073003;28;20501;-49
2023/02/17 08:54:55;;;;;;;41.10;17.25;;;;;;;;;;5074232;28;20016;-50
2023/02/17 08:57:21;;;;;;;33.33;15.77;;;;;;;;;;5074028;28;20032;-50
2023/02/17 08:59:48;;;;;;;29.55;14.18;;;;;;;;;;5074121;28;20031;-50
2023/02/17 09:02:14;;;;;;;35.83;16.48;;;;;;;;;;5074314;28;20036;-50
2023/02/17 09:04:39;;;;;;;31.77;15.23;;;;;;;;;;5073909;28;20028;-50
2023/02/17 09:07:08;;;;;;;35.60;16.55;;;;;;;;;;5073935;28;20043;-49
2023/02/17 09:09:33;;;;;;;34.60;17.27;;;;;;;;;;5074107;28;20163;-50
2023/02/17 09:11:59;;;;;;;33.13;16.45;;;;;;;;;;5073902;28;20546;-50
2023/02/17 09:14:24;;;;;;;41.92;17.08;;;;;;;;;;5074132;28;20032;-50
2023/02/17 09:16:50;;;;;;;39.55;16.15;;;;;;;;;;5073785;28;20062;-50
2023/02/17 09:19:16;;;;;;;35.25;16.52;;;;;;;;;;5073656;28;20046;-50
2023/02/17 09:21:41;;;;;;;32.65;15.50;;;;;;;;;;5073673;28;20059;-50
2023/02/17 09:24:07;;;;;;;35.05;17.85;;;;;;;;;;5073590;28;20173;-50
2023/02/17 09:26:33;;;;;;;34.70;16.88;;;;;;;;;;5073848;28;20104;-50
2023/02/17 09:29:00;;;;;;;32.63;16.30;;;;;;;;;;5073495;28;20027;-50
2023/02/17 09:31:26;;;;;;;32.03;13.70;;;;;;;;;;5073834;28;20029;-50
2023/02/17 09:33:51;;;;;;;33.38;16.65;;;;;;;;;;5073362;28;20048;-50
2023/02/17 09:36:19;;;;;;;47.10;17.85;;;;;;;;;;5073594;28;20039;-50
2023/02/17 09:38:44;;;;;;;32.42;16.67;;;;;;;;;;5073413;28;20123;-49
2023/02/17 09:41:15;;;;;;;36.38;18.40;;;;;;;;;;5073239;28;20579;-50
2023/02/17 09:43:40;;;;;;;36.13;17.83;;;;;;;;;;5073507;28;20067;-50
2023/02/17 09:46:08;;;;;;;38.03;15.13;;;;;;;;;;5073123;28;20526;-50
2023/02/17 09:48:35;;;;;;;34.15;16.67;;;;;;;;;;5073261;28;20112;-50
2023/02/17 09:51:12;;;;;;;35.25;16.58;;;;;;;;;;5073034;28;20037;-50
2023/02/17 09:53:50;;;;;;;37.88;16.98;;;;;;;;;;5072814;28;20036;-50
2023/02/17 09:56:23;;;;;;;35.95;14.93;;;;;;;;;;5072933;28;20036;-50
2023/02/17 09:58:51;;;;;;;44.40;16.75;;;;;;;;;;5072935;28;20025;-50
2023/02/17 10:01:19;;;;;;;37.15;16.70;;;;;;;;;;5073154;28;20029;-50
2023/02/17 10:03:50;;;;;;;44.03;16.02;;;;;;;;;;5071586;28;20041;-50
2023/02/17 10:06:19;;;;;;;35.03;16.55;;;;;;;;;;5072833;28;20060;-49
2023/02/17 10:08:51;;;;;;;44.30;18.60;;;;;;;;;;5073067;28;20032;-50
2023/02/17 10:11:25;;;;;;;40.28;15.75;;;;;;;;;;5072752;28;20107;-50
2023/02/17 10:13:51;;;;;;;41.80;18.10;;;;;;;;;;5072730;28;20070;-50
2023/02/17 10:16:21;;;;;;;35.97;18.13;;;;;;;;;;5072578;28;20025;-50
2023/02/17 10:18:57;;;;;;;35.05;15.32;;;;;;;;;;5072474;28;20127;-50
2023/02/17 10:21:35;;;;;;;40.30;17.35;;;;;;;;;;5072513;28;20020;-49
2023/02/17 10:24:01;;;;;;;47.17;18.77;;;;;;;;;;5072408;28;20090;-50
2023/02/17 10:26:33;;;;;;;39.97;14.90;;;;;;;;;;5071319;28;20630;-50
2023/02/17 10:29:05;;;;;;;34.17;14.57;;;;;;;;;;5072294;28;20107;-50
2023/02/17 10:31:34;;;;;;;52.90;18.52;;;;;;;;;;5072344;28;20020;-50
2023/02/17 10:34:04;;;;;;;49.80;18.08;;;;;;;;;;5072059;28;20036;-50
2023/02/17 10:36:50;;;;;;;32.50;16.33;;;;;;;;;;5072299;28;20638;-50
2023/02/17 10:39:22;;;;;;;40.80;17.98;;;;;;;;;;5072113;28;20119;-50
2023/02/17 10:41:50;;;;;;;42.00;17.63;;;;;;;;;;5072178;28;20064;-50
2023/02/17 10:44:17;;;;;;;38.17;15.73;;;;;;;;;;5071926;28;20111;-49
2023/02/17 10:46:43;;;;;;;46.10;20.10;;;;;;;;;;5072039;28;20475;-49
2023/02/17 10:49:17;;;;;;;42.60;16.80;;;;;;;;;;5072082;28;20047;-49
2023/02/17 10:51:43;;;;;;;46.33;19.38;;;;;;;;;;5071951;28;20502;-50
2023/02/17 10:54:17;;;;;;;41.35;18.05;;;;;;;;;;5071833;28;20047;-50
2023/02/17 10:56:45;;;;;;;33.92;15.68;;;;;;;;;;5071913;28;20107;-49
2023/02/17 10:59:14;;;;;;;34.47;16.27;;;;;;;;;;5071710;28;20017;-50
2023/02/17 11:01:40;;;;;;;39.88;18.50;;;;;;;;;;5071876;28;20082;-50
2023/02/17 11:04:06;;;;;;;42.33;17.83;;;;;;;;;;5071631;28;20035;-49
2023/02/17 11:06:36;;;;;;;46.83;16.58;;;;;;;;;;5071016;28;20021;-50
2023/02/17 11:09:03;;;;;;;48.08;18.88;;;;;;;;;;5070368;28;20131;-50
2023/02/17 11:11:30;;;;;;;35.38;15.23;;;;;;;;;;5071674;28;20032;-50
2023/02/17 11:14:02;;;;;;;55.63;17.60;;;;;;;;;;5071723;28;20047;-50
2023/02/17 11:16:32;;;;;;;37.53;18.55;;;;;;;;;;5071608;28;20102;-49
2023/02/17 11:18:57;;;;;;;38.33;16.05;;;;;;;;;;5071553;28;20036;-50
2023/02/17 11:21:23;;;;;;;54.80;16.25;;;;;;;;;;5071669;28;20041;-50
2023/02/17 11:23:57;;;;;;;47.35;17.33;;;;;;;;;;5071366;28;20028;-51
2023/02/17 11:26:24;;;;;;;46.50;17.63;;;;;;;;;;5071672;28;20460;-50
2023/02/17 11:28:49;;;;;;;31.70;15.15;;;;;;;;;;5071673;28;20375;-50
2023/02/17 11:31:23;;;;;;;52.35;16.20;;;;;;;;;;5070132;28;20040;-50
2023/02/17 11:33:49;;;;;;;46.50;17.48;;;;;;;;;;5071284;28;20388;-50
2023/02/17 11:36:24;;;;;;;44.22;15.95;;;;;;;;;;5071549;28;20063;-50
2023/02/17 11:38:49;;;;;;;38.83;16.60;;;;;;;;;;5071645;28;20038;-50
2023/02/17 11:41:16;;;;;;;43.13;17.42;;;;;;;;;;5071285;28;20028;-50
2023/02/17 11:43:58;;;;;;;58.95;17.83;;;;;;;;;;5071299;28;20562;-50
2023/02/17 11:46:26;;;;;;;51.55;18.55;;;;;;;;;;5071220;28;20044;-50
2023/02/17 11:48:57;;;;;;;48.13;16.45;;;;;;;;;;5071181;28;20119;-50
2023/02/17 11:51:22;;;;;;;40.45;14.60;;;;;;;;;;5071148;28;20546;-49
2023/02/17 11:53:51;;;;;;;41.38;17.17;;;;;;;;;;5071238;28;20120;-50
2023/02/17 11:56:17;;;;;;;50.63;17.13;;;;;;;;;;5071106;28;20456;-50
2023/02/17 11:58:54;;;;;;;67.25;18.85;;;;;;;;;;5071239;28;20437;-50
2023/02/17 12:01:22;;;;;;;66.45;18.88;;;;;;;;;;5071054;28;20457;-50
2023/02/17 12:03:55;;;;;;;53.40;15.55;;;;;;;;;;5071153;28;20082;-50
2023/02/17 12:06:38;;;;;;;52.47;17.42;;;;;;;;;;5071336;28;20033;-50
2023/02/17 12:09:04;;;;;;;;;;;;;;;;;;5071479;28;20047;-50
2023/02/17 12:11:30;;;;;;;37.25;12.50;;;;;;;;;;5071007;28;19905;-50
2023/02/17 12:14:28;;;;;;;51.47;19.83;;;;;;;;;;5071069;28;20119;-50
2023/02/17 12:17:03;;;;;;;43.80;18.10;;;;;;;;;;5027634;28;20394;-50
2023/02/17 12:19:34;;;;;;;42.53;14.70;;;;;;;;;;5075148;28;20043;-50
2023/02/17 12:22:17;;;;;;;49.60;17.23;;;;;;;;;;5075154;28;20070;-49
2023/02/17 12:24:52;;;;;;;41.17;17.65;;;;;;;;;;5074971;28;20382;-50
2023/02/17 12:27:17;;;;;;;46.88;15.07;;;;;;;;;;5074657;28;20033;-50
2023/02/17 12:29:59;;;;;;;44.78;16.67;;;;;;;;;;5074648;28;20021;-50
2023/02/17 12:32:27;;;;;;;44.08;14.88;;;;;;;;;;5074612;28;20051;-50
2023/02/17 12:34:59;;;;;;;49.35;16.25;;;;;;;;;;5073293;28;20043;-49
2023/02/17 12:37:27;;;;;;;58.65;20.23;;;;;;;;;;5074503;28;20033;-50
2023/02/17 12:40:07;;;;;;;49.05;16.52;;;;;;;;;;5073278;28;20020;-50
2023/02/17 12:42:39;;;;;;;35.72;15.40;;;;;;;;;;5073138;28;20024;-50
2023/02/17 12:45:06;;;;;;;43.70;14.98;;;;;;;;;;5074217;28;20037;-50
2023/02/17 12:47:43;;;;;;;47.33;16.05;;;;;;;;;;5074424;28;20135;-50
2023/02/17 12:50:22;;;;;;;43.72;14.65;;;;;;;;;;5073222;28;20040;-49
2023/02/17 12:52:51;;;;;;;37.88;13.63;;;;;;;;;;5074578;28;20094;-50
2023/02/17 12:55:20;;;;;;;44.80;16.73;;;;;;;;;;5074098;28;20032;-50
2023/02/17 12:57:57;;;;;;;53.90;16.33;;;;;;;;;;5074261;28;20474;-50
2023/02/17 13:00:42;;;;;;;39.88;15.35;;;;;;;;;;5074031;28;20090;-50
2023/02/17 13:03:09;;;;;;;48.55;16.98;;;;;;;;;;5074192;28;20025;-50
2023/02/17 13:05:39;;;;;;;42.83;15.02;;;;;;;;;;5074106;28;20029;-50
2023/02/17 13:08:05;;;;;;;56.88;17.73;;;;;;;;;;5074214;28;20524;-50
2023/02/17 13:10:32;;;;;;;49.58;20.83;;;;;;;;;;5073841;28;20100;-50
2023/02/17 13:13:00;;;;;;;52.08;16.45;;;;;;;;;;5073876;28;20086;-50
2023/02/17 13:15:32;;;;;;;54.22;16.85;;;;;;;;;;5074097;28;20021;-50
2023/02/17 13:18:02;;;;;;;52.08;15.63;;;;;;;;;;5072546;28;20388;-49
2023/02/17 13:20:44;;;;;;;49.97;16.25;;;;;;;;;;5073723;28;20047;-50
2023/02/17 13:23:12;;;;;;;43.60;16.48;;;;;;;;;;5073576;28;20028;-50
2023/02/17 13:25:38;;;;;;;51.88;17.70;;;;;;;;;;5073964;28;20036;-50
2023/02/17 13:28:18;;;;;;;54.65;18.17;;;;;;;;;;5072971;28;20029;-50
2023/02/17 13:30:44;;;;;;;32.92;13.80;;;;;;;;;;5073856;28;20016;-50
2023/02/17 13:33:13;;;;;;;50.20;19.30;;;;;;;;;;5073376;28;20052;-50
2023/02/17 13:35:38;;;;;;;53.70;17.10;;;;;;;;;;5073792;28;20032;-50
2023/02/17 13:38:04;;;;;;;44.80;17.38;;;;;;;;;;5073381;28;20043;-50
2023/02/17 13:40:29;;;;;;;47.45;17.40;;;;;;;;;;5073382;28;20471;-50
2023/02/17 13:43:07;;;;;;;47.28;15.48;;;;;;;;;;5073416;28;20021;-50
2023/02/17 13:45:46;;;;;;;43.97;16.88;;;;;;;;;;5073366;28;20032;-49
2023/02/17 13:48:11;;;;;;;44.40;15.57;;;;;;;;;;5073115;28;20374;-50
2023/02/17 13:50:42;;;;;;;43.78;15.82;;;;;;;;;;5073167;28;20081;-50
2023/02/17 13:53:21;;;;;;;47.38;19.52;;;;;;;;;;5073060;28;20036;-50
2023/02/17 13:55:47;;;;;;;42.63;15.40;;;;;;;;;;5073121;28;20134;-50
2023/02/17 13:58:12;;;;;;;44.97;15.70;;;;;;;;;;5072991;28;20103;-49
2023/02/17 14:00:41;;;;;;;42.50;17.65;;;;;;;;;;5071654;28;20427;-50
2023/02/17 14:03:12;;;;;;;42.47;17.08;;;;;;;;;;5072974;28;20451;-50
2023/02/17 14:05:41;;;;;;;40.55;15.05;;;;;;;;;;5073129;28;20044;-50
2023/02/17 14:08:27;;;;;;;51.38;14.48;;;;;;;;;;5072887;28;20023;-50
2023/02/17 14:10:52;;;;;;;32.13;12.80;;;;;;;;;;5072456;28;20529;-49
2023/02/17 14:13:18;;;;;;;47.40;17.13;;;;;;;;;;5072938;28;20056;-50
2023/02/17 14:15:55;;;;;;;50.92;15.57;;;;;;;;;;5072913;28;20463;-50
2023/02/17 14:18:28;;;;;;;42.58;16.10;;;;;;;;;;5072472;28;20043;-50
2023/02/17 14:21:08;;;;;;;33.72;13.98;;;;;;;;;;5071326;28;20029;-50
2023/02/17 14:23:42;;;;;;;39.15;15.40;;;;;;;;;;5072545;28;20021;-50
2023/02/17 14:26:08;;;;;;;36.85;15.18;;;;;;;;;;5072338;28;20499;-50
2023/02/17 14:28:34;;;;;;;52.03;18.45;;;;;;;;;;5072343;28;20028;-50